Time;durP1;ratioP1;P1;durP2;ratioP2;P2;SDS_P1;SDS_P2;PMS_P1;PMS_P2;Temp;Humidity;BMP_temperature;BMP_pressure;BME280_temperature;BME280_humidity;BME280_pressure;Samples;Min_cycle;Max_cycle;Signal;HPM_P1;HPM_P2
2022/01/16 00:00:09;;;;;;;60.50;20.52;;;2.00;99.90;;;;;;4997354;28;20046;-81
2022/01/16 00:05:04;;;;;;;61.20;21.33;;;2.00;99.90;;;;;;4997780;28;20129;-81
2022/01/16 00:07:29;;;;;;;73.35;22.50;;;2.00;99.90;;;;;;4998552;28;20035;-81
2022/01/16 00:09:55;;;;;;;60.67;22.00;;;2.00;99.90;;;;;;4998102;28;20040;-81
2022/01/16 00:12:23;;;;;;;62.03;21.15;;;2.00;99.90;;;;;;4998982;28;20088;-81
2022/01/16 00:14:49;;;;;;;64.72;21.10;;;2.00;99.90;;;;;;4997480;28;20058;-81
2022/01/16 00:17:15;;;;;;;65.10;21.25;;;1.90;99.90;;;;;;4998643;28;20058;-81
2022/01/16 00:19:40;;;;;;;62.08;21.05;;;1.90;99.90;;;;;;4998077;28;20042;-81
2022/01/16 00:22:12;;;;;;;57.45;20.63;;;1.90;99.90;;;;;;4997971;28;20125;-82
2022/01/16 00:24:38;;;;;;;57.92;21.38;;;1.90;99.90;;;;;;4997895;28;20039;-81
2022/01/16 00:27:04;;;;;;;60.85;21.38;;;1.80;99.90;;;;;;4998254;28;20050;-81
2022/01/16 00:29:31;;;;;;;56.30;20.20;;;1.80;99.90;;;;;;4997824;28;20042;-81
2022/01/16 00:31:56;;;;;;;54.33;19.98;;;1.80;99.90;;;;;;4998418;28;20050;-81
2022/01/16 00:34:22;;;;;;;52.63;18.27;;;1.80;99.90;;;;;;4998776;28;20050;-81
2022/01/16 00:36:48;;;;;;;56.35;19.55;;;1.80;99.90;;;;;;4997431;28;20121;-81
2022/01/16 00:39:13;;;;;;;56.08;19.35;;;1.80;99.90;;;;;;4997753;28;20117;-81
2022/01/16 00:41:39;;;;;;;52.35;18.77;;;1.70;99.90;;;;;;4997882;28;20053;-81
2022/01/16 00:44:05;;;;;;;50.15;17.65;;;1.70;99.90;;;;;;4997452;28;20038;-81
2022/01/16 00:46:31;;;;;;;53.33;17.15;;;1.60;99.90;;;;;;4996752;28;20038;-81
2022/01/16 00:48:56;;;;;;;53.58;18.27;;;1.60;99.90;;;;;;4997220;28;20030;-81
2022/01/16 00:51:22;;;;;;;48.00;16.40;;;1.60;99.90;;;;;;4997915;28;20062;-81
2022/01/16 00:53:48;;;;;;;62.05;20.45;;;1.60;99.90;;;;;;4997800;28;20066;-81
2022/01/16 00:56:13;;;;;;;63.45;20.20;;;1.60;99.90;;;;;;4980706;28;20053;-81
2022/01/16 00:58:40;;;;;;;58.42;20.60;;;1.60;99.90;;;;;;4998414;28;20042;-81
2022/01/16 01:01:06;;;;;;;61.22;19.42;;;1.60;99.90;;;;;;4995981;28;20053;-81
2022/01/16 01:03:31;;;;;;;62.25;20.17;;;1.60;99.90;;;;;;4994598;28;20072;-82
2022/01/16 01:05:57;;;;;;;67.10;19.75;;;1.60;99.90;;;;;;4996354;28;20034;-81
2022/01/16 01:08:26;;;;;;;60.28;20.25;;;1.60;99.90;;;;;;4994868;28;20038;-81
2022/01/16 01:10:53;;;;;;;67.32;20.63;;;1.60;99.90;;;;;;4994602;28;20050;-81
2022/01/16 01:13:30;;;;;;;73.25;22.08;;;1.60;99.90;;;;;;4995052;28;20050;-81
2022/01/16 01:16:02;;;;;;;68.90;22.20;;;1.60;99.90;;;;;;4998214;28;20046;-81
2022/01/16 01:18:29;;;;;;;67.65;21.00;;;1.60;99.90;;;;;;4998472;28;20470;-81
2022/01/16 01:20:55;;;;;;;69.88;22.63;;;1.70;99.90;;;;;;4998315;28;20097;-81
2022/01/16 01:23:21;;;;;;;70.60;23.08;;;1.70;99.90;;;;;;4999784;28;20153;-81
2022/01/16 01:25:46;;;;;;;66.53;23.02;;;1.70;99.90;;;;;;4997502;28;20683;-81
2022/01/16 01:28:12;;;;;;;67.55;22.95;;;1.70;99.90;;;;;;4997686;28;20046;-81
2022/01/16 01:30:40;;;;;;;79.10;21.65;;;1.70;99.90;;;;;;4996393;28;20038;-81
2022/01/16 01:33:06;;;;;;;77.40;23.92;;;1.70;99.90;;;;;;4979542;28;20042;-81
2022/01/16 01:35:38;;;;;;;66.10;21.02;;;1.80;99.90;;;;;;4996339;28;20399;-81
2022/01/16 01:38:06;;;;;;;67.05;23.30;;;1.70;99.90;;;;;;4995611;28;20049;-82
2022/01/16 01:40:34;;;;;;;80.95;23.60;;;1.80;99.90;;;;;;4995266;28;20038;-82
2022/01/16 01:51:15;;;;;;;83.72;24.55;;;1.90;99.90;;;;;;4996436;28;20513;-82
2022/01/16 01:53:42;;;;;;;87.65;27.20;;;1.90;99.90;;;;;;4995874;28;20513;-81
2022/01/16 01:56:10;;;;;;;77.05;23.13;;;1.80;99.90;;;;;;4997066;28;20098;-81
2022/01/16 01:58:36;;;;;;;87.93;26.35;;;1.80;99.90;;;;;;4996936;28;20080;-82
2022/01/16 02:01:03;;;;;;;79.22;23.90;;;1.90;99.90;;;;;;4998427;28;20038;-81
2022/01/16 02:06:00;;;;;;;85.73;23.43;;;1.90;99.90;;;;;;4996267;28;20330;-82
2022/01/16 02:08:26;;;;;;;92.40;24.92;;;1.90;99.90;;;;;;4979356;28;20038;-81
2022/01/16 02:10:51;;;;;;;84.35;25.75;;;1.90;99.90;;;;;;4997238;28;20081;-81
2022/01/16 02:13:28;;;;;;;92.80;25.08;;;1.90;99.90;;;;;;4996750;28;20046;-81
2022/01/16 02:34:37;;;;;;;95.88;25.48;;;2.00;99.90;;;;;;4996420;28;20051;-81
2022/01/16 02:37:08;;;;;;;87.57;23.77;;;1.90;99.90;;;;;;4996091;28;20061;-81
2022/01/16 02:39:40;;;;;;;98.40;27.00;;;2.00;99.90;;;;;;4995288;28;20125;-82
2022/01/16 02:42:07;;;;;;;98.53;26.73;;;1.90;99.90;;;;;;4992798;28;20042;-82
2022/01/16 02:44:42;;;;;;;90.85;25.80;;;2.00;99.90;;;;;;4995391;28;20125;-81
2022/01/16 02:47:10;;;;;;;83.47;25.70;;;2.00;99.90;;;;;;4993750;28;20158;-81
2022/01/16 02:49:36;;;;;;;94.53;28.08;;;1.90;99.90;;;;;;4993882;28;20084;-81
2022/01/16 02:52:11;;;;;;;99.78;25.98;;;1.90;99.90;;;;;;4995554;28;20105;-81
2022/01/16 02:54:39;;;;;;;101.13;26.17;;;2.00;99.90;;;;;;4997052;28;20117;-81
2022/01/16 02:57:08;;;;;;;101.78;27.27;;;1.90;99.90;;;;;;4997022;28;20108;-81
2022/01/16 02:59:34;;;;;;;83.55;25.00;;;1.90;99.90;;;;;;4997197;28;20046;-81
2022/01/16 03:02:01;;;;;;;84.10;24.70;;;2.00;99.90;;;;;;4981004;28;20046;-81
2022/01/16 03:04:29;;;;;;;86.93;27.08;;;2.00;99.90;;;;;;4980632;28;20445;-81
2022/01/16 03:06:55;;;;;;;84.18;24.15;;;2.00;99.90;;;;;;4980648;28;20078;-81
2022/01/16 03:09:22;;;;;;;97.95;26.73;;;2.10;99.90;;;;;;4997000;28;20121;-81
2022/01/16 03:11:49;;;;;;;86.22;24.20;;;2.00;99.90;;;;;;4995801;28;20057;-81
2022/01/16 03:14:18;;;;;;;75.25;23.77;;;2.10;99.90;;;;;;4996730;28;20444;-81
2022/01/16 03:16:48;;;;;;;86.65;23.92;;;2.10;99.90;;;;;;4995601;28;20042;-81
2022/01/16 03:22:03;;;;;;;83.65;23.15;;;2.10;99.90;;;;;;4996302;28;20053;-81
2022/01/16 03:24:37;;;;;;;86.20;22.80;;;2.10;99.90;;;;;;4997519;28;20030;-82
2022/01/16 03:27:06;;;;;;;86.68;24.63;;;2.10;99.90;;;;;;4995255;28;20034;-81
2022/01/16 03:29:32;;;;;;;68.32;22.20;;;2.10;99.90;;;;;;4995249;28;20034;-82
2022/01/16 03:31:59;;;;;;;88.82;23.85;;;2.10;99.90;;;;;;4995883;28;20077;-81
2022/01/16 03:34:25;;;;;;;75.30;21.95;;;2.10;99.90;;;;;;4979844;28;20050;-82
2022/01/16 03:36:51;;;;;;;81.85;22.88;;;2.10;99.90;;;;;;4979678;28;20125;-81
2022/01/16 03:39:17;;;;;;;79.32;23.85;;;2.10;99.90;;;;;;4996239;28;20046;-81
2022/01/16 03:41:43;;;;;;;83.20;22.63;;;2.20;99.90;;;;;;4979801;28;20054;-81
2022/01/16 03:44:09;;;;;;;84.10;22.10;;;2.20;99.90;;;;;;4995463;28;20031;-81
2022/01/16 03:46:39;;;;;;;73.32;22.77;;;2.20;99.90;;;;;;4996130;28;20404;-82
2022/01/16 03:49:11;;;;;;;78.30;24.33;;;2.30;99.90;;;;;;4982084;28;20042;-81
2022/01/16 03:51:37;;;;;;;;;;;2.30;99.90;;;;;;4999137;28;20137;-81
2022/01/16 03:54:05;;;;;;;71.28;21.00;;;2.30;99.90;;;;;;4998442;28;20423;-81
2022/01/16 03:56:30;;;;;;;78.38;21.73;;;2.30;99.90;;;;;;4999286;28;20043;-81
2022/01/16 03:58:56;;;;;;;72.68;23.98;;;2.30;99.90;;;;;;4983059;28;20046;-81
2022/01/16 04:01:24;;;;;;;71.90;23.58;;;2.30;99.90;;;;;;4999767;28;20053;-81
2022/01/16 04:03:50;;;;;;;78.22;22.98;;;2.30;99.90;;;;;;4999070;28;20049;-81
2022/01/16 04:06:16;;;;;;;76.95;24.30;;;2.40;99.90;;;;;;4998624;28;20398;-81
2022/01/16 04:08:42;;;;;;;86.18;23.35;;;2.40;99.90;;;;;;4999303;28;20436;-81
2022/01/16 04:11:08;;;;;;;77.40;23.63;;;2.40;99.90;;;;;;4999179;28;20074;-81
2022/01/16 04:13:34;;;;;;;72.40;23.00;;;2.40;99.90;;;;;;4998655;28;20042;-81
2022/01/16 04:15:59;;;;;;;77.63;25.58;;;2.40;99.90;;;;;;4997983;28;20042;-81
2022/01/16 04:18:25;;;;;;;82.57;24.23;;;2.40;99.90;;;;;;4998018;28;20557;-81
2022/01/16 04:20:50;;;;;;;83.78;26.23;;;2.50;99.90;;;;;;4997740;28;20429;-81
2022/01/16 04:23:16;;;;;;;81.18;24.10;;;2.50;99.90;;;;;;4998993;28;20046;-81
2022/01/16 04:25:42;;;;;;;71.97;22.38;;;2.50;99.90;;;;;;4997676;28;20062;-81
2022/01/16 04:28:07;;;;;;;77.30;22.80;;;2.50;99.90;;;;;;4997195;28;20049;-82
2022/01/16 04:30:33;;;;;;;71.57;24.73;;;2.50;99.90;;;;;;4993283;28;20124;-79
2022/01/16 04:32:59;;;;;;;79.70;22.42;;;2.50;99.90;;;;;;4977427;28;20402;-79
2022/01/16 04:35:25;;;;;;;87.15;24.45;;;2.50;99.90;;;;;;4993328;28;20042;-79
2022/01/16 04:37:50;;;;;;;70.72;23.67;;;2.50;99.90;;;;;;4993284;28;20085;-79
2022/01/16 04:40:16;;;;;;;79.55;23.08;;;2.60;99.90;;;;;;4993045;28;20038;-80
2022/01/16 04:45:27;;;;;;;79.88;21.33;;;2.60;99.90;;;;;;4992958;28;20042;-79
2022/01/16 04:47:53;;;;;;;77.78;22.02;;;2.60;99.90;;;;;;4993318;28;20042;-79
2022/01/16 04:50:22;;;;;;;82.50;24.17;;;2.60;99.90;;;;;;4977022;28;20046;-79
2022/01/16 04:52:48;;;;;;;67.95;22.02;;;2.60;99.90;;;;;;4993021;28;20050;-79
2022/01/16 04:55:15;;;;;;;75.90;24.00;;;2.60;99.90;;;;;;4992672;28;20132;-79
2022/01/16 04:57:41;;;;;;;72.90;23.40;;;2.70;99.90;;;;;;4993008;28;20050;-79
2022/01/16 05:00:12;;;;;;;78.93;25.30;;;2.70;99.90;;;;;;4992650;28;20053;-79
2022/01/16 05:02:38;;;;;;;78.15;20.35;;;2.70;99.90;;;;;;4992717;28;20095;-79
2022/01/16 05:05:05;;;;;;;67.82;22.02;;;2.70;99.90;;;;;;4992835;28;20121;-79
2022/01/16 05:07:30;;;;;;;70.63;21.35;;;2.70;99.90;;;;;;4992720;28;20045;-79
2022/01/16 05:09:56;;;;;;;74.13;21.80;;;2.70;99.90;;;;;;4992854;28;20445;-79
2022/01/16 05:12:33;;;;;;;82.88;23.90;;;2.70;99.90;;;;;;4992676;28;20350;-79
2022/01/16 05:17:43;;;;;;;74.30;22.42;;;2.70;99.90;;;;;;4992547;28;20108;-80
2022/01/16 05:20:09;;;;;;;75.05;23.80;;;2.70;99.90;;;;;;4992401;28;20042;-79
2022/01/16 05:22:36;;;;;;;69.25;21.13;;;2.70;99.90;;;;;;4976141;28;20053;-79
2022/01/16 05:25:03;;;;;;;75.88;23.63;;;2.70;99.90;;;;;;4992237;28;20336;-79
2022/01/16 05:27:29;;;;;;;74.75;24.25;;;2.70;99.90;;;;;;4992319;28;20046;-79
2022/01/16 05:29:54;;;;;;;67.97;21.95;;;2.70;99.90;;;;;;4992244;28;20045;-79
2022/01/16 05:32:20;;;;;;;87.55;26.70;;;2.80;99.90;;;;;;4992472;28;20042;-79
2022/01/16 05:34:45;;;;;;;78.65;25.98;;;2.80;99.90;;;;;;4992411;28;20045;-80
2022/01/16 05:37:11;;;;;;;82.13;23.70;;;2.80;99.90;;;;;;4991943;28;20042;-79
2022/01/16 05:39:37;;;;;;;82.43;24.55;;;2.80;99.90;;;;;;4992234;28;20046;-79
2022/01/16 05:42:02;;;;;;;77.03;23.63;;;2.80;99.90;;;;;;4992217;28;20058;-79
2022/01/16 05:44:28;;;;;;;80.82;23.77;;;2.80;99.90;;;;;;4991984;28;20038;-80
2022/01/16 05:46:53;;;;;;;80.97;22.85;;;2.80;99.90;;;;;;4992057;28;20030;-79
2022/01/16 05:49:19;;;;;;;85.93;25.58;;;2.80;99.90;;;;;;4991964;28;20174;-79
2022/01/16 05:51:45;;;;;;;81.35;24.50;;;2.80;99.90;;;;;;4992028;28;20038;-79
2022/01/16 05:54:10;;;;;;;85.72;25.67;;;2.80;99.90;;;;;;4991837;28;20501;-80
2022/01/16 05:56:36;;;;;;;85.70;26.05;;;2.90;99.90;;;;;;4991614;28;20050;-81
2022/01/16 05:59:02;;;;;;;79.60;23.08;;;2.90;99.90;;;;;;4991915;28;20285;-79
2022/01/16 06:01:27;;;;;;;81.53;24.27;;;2.90;99.90;;;;;;4992085;28;20761;-79
2022/01/16 06:03:53;;;;;;;84.75;25.23;;;2.90;99.90;;;;;;4975521;28;20042;-80
2022/01/16 06:06:18;;;;;;;77.50;24.15;;;2.90;99.90;;;;;;4975467;28;20530;-79
2022/01/16 06:08:44;;;;;;;77.50;21.88;;;2.80;99.90;;;;;;4991580;28;20494;-79
2022/01/16 06:11:09;;;;;;;73.70;23.77;;;2.90;99.90;;;;;;4991063;28;20046;-79
2022/01/16 06:13:35;;;;;;;80.63;25.60;;;2.90;99.90;;;;;;4991883;28;20038;-79
2022/01/16 06:16:02;;;;;;;79.40;24.00;;;2.90;99.90;;;;;;4991352;28;20050;-80
2022/01/16 06:18:28;;;;;;;79.68;21.95;;;2.90;99.90;;;;;;4991547;28;20080;-79
2022/01/16 06:20:53;;;;;;;97.28;26.70;;;2.90;99.90;;;;;;4991529;28;20074;-79
2022/01/16 06:23:19;;;;;;;79.35;23.38;;;2.90;99.90;;;;;;4991392;28;20061;-80
2022/01/16 06:25:44;;;;;;;93.10;26.10;;;3.00;99.90;;;;;;4991205;28;20050;-80
2022/01/16 06:28:10;;;;;;;82.80;25.25;;;3.00;99.90;;;;;;4991669;28;20532;-79
2022/01/16 06:30:36;;;;;;;82.13;24.60;;;3.00;99.90;;;;;;4991273;28;20034;-79
2022/01/16 06:33:03;;;;;;;92.70;27.15;;;3.00;99.90;;;;;;4991392;28;20535;-79
2022/01/16 06:35:29;;;;;;;78.05;24.92;;;3.00;99.90;;;;;;4991104;28;20061;-79
2022/01/16 06:37:55;;;;;;;84.05;25.00;;;3.00;99.90;;;;;;4991642;28;20046;-80
2022/01/16 06:40:20;;;;;;;78.38;25.58;;;3.00;99.90;;;;;;4991492;28;20034;-79
2022/01/16 06:42:47;;;;;;;89.43;25.25;;;3.00;99.90;;;;;;4992468;28;20573;-79
2022/01/16 06:45:12;;;;;;;95.82;26.10;;;3.10;99.90;;;;;;4992262;28;20082;-79
2022/01/16 06:47:38;;;;;;;99.60;26.70;;;3.00;99.90;;;;;;4991519;28;20081;-79
2022/01/16 06:50:06;;;;;;;90.32;24.95;;;3.10;99.90;;;;;;4991137;28;20497;-80
2022/01/16 06:52:31;;;;;;;95.22;26.58;;;3.10;99.90;;;;;;4991170;28;20085;-80
2022/01/16 06:54:57;;;;;;;93.72;24.30;;;3.20;99.90;;;;;;4991385;28;20078;-79
2022/01/16 06:57:22;;;;;;;80.78;24.60;;;3.10;99.90;;;;;;4990957;28;20049;-79
2022/01/16 06:59:48;;;;;;;90.97;25.10;;;3.10;99.90;;;;;;4974904;28;20394;-79
2022/01/16 07:02:16;;;;;;;81.38;26.08;;;3.20;99.90;;;;;;4991439;28;20046;-80
2022/01/16 07:04:43;;;;;;;78.30;25.50;;;3.20;99.90;;;;;;4977500;28;20042;-79
2022/01/16 07:07:09;;;;;;;96.63;24.70;;;3.20;99.90;;;;;;4992898;28;20093;-79
2022/01/16 07:09:34;;;;;;;86.13;25.38;;;3.30;99.90;;;;;;4992892;28;20054;-80
2022/01/16 07:12:00;;;;;;;86.93;24.85;;;3.20;99.90;;;;;;4991302;28;20502;-80
2022/01/16 07:14:26;;;;;;;91.18;24.35;;;3.20;99.90;;;;;;4992331;28;20548;-79
2022/01/16 07:16:51;;;;;;;88.22;24.63;;;3.30;99.90;;;;;;4991567;28;20100;-79
2022/01/16 07:19:17;;;;;;;84.93;26.08;;;3.30;99.90;;;;;;4992580;28;20043;-79
2022/01/16 07:21:42;;;;;;;93.22;26.63;;;3.30;99.90;;;;;;4993334;28;20133;-79
2022/01/16 07:24:15;;;;;;;86.03;24.15;;;3.30;99.90;;;;;;4996358;28;20054;-79
2022/01/16 07:26:41;;;;;;;77.32;22.92;;;3.30;99.90;;;;;;4994655;28;20042;-79
2022/01/16 07:29:07;;;;;;;89.35;28.63;;;3.40;99.90;;;;;;4994514;28;20173;-79
2022/01/16 07:31:33;;;;;;;72.10;23.10;;;3.40;99.90;;;;;;4994569;28;20132;-80
2022/01/16 07:33:59;;;;;;;85.95;26.02;;;3.40;99.90;;;;;;4994732;28;20043;-79
2022/01/16 07:36:24;;;;;;;76.22;25.02;;;3.40;99.90;;;;;;4994149;28;20089;-81
2022/01/16 07:38:50;;;;;;;92.38;27.98;;;3.40;99.90;;;;;;4994337;28;20052;-79
2022/01/16 07:41:15;;;;;;;88.25;21.90;;;3.50;99.90;;;;;;4994413;28;20042;-79
2022/01/16 07:43:41;;;;;;;82.22;25.00;;;3.50;99.90;;;;;;4994219;28;20185;-79
2022/01/16 07:46:06;;;;;;;82.65;25.55;;;3.50;99.90;;;;;;4994217;28;20038;-79
2022/01/16 07:48:32;;;;;;;73.50;22.27;;;3.60;99.90;;;;;;4994156;28;20057;-79
2022/01/16 07:50:57;;;;;;;85.00;26.80;;;3.60;99.90;;;;;;4994319;28;20046;-79
2022/01/16 07:53:23;;;;;;;88.53;26.35;;;3.70;99.90;;;;;;4995328;28;20145;-79
2022/01/16 07:55:48;;;;;;;86.07;24.30;;;3.70;99.90;;;;;;4995188;28;20081;-78
2022/01/16 07:58:14;;;;;;;80.60;28.35;;;3.70;99.90;;;;;;4994461;28;20129;-80
2022/01/16 08:00:39;;;;;;;81.55;25.52;;;3.80;99.90;;;;;;4994604;28;20517;-81
2022/01/16 08:03:05;;;;;;;89.68;28.35;;;3.80;99.90;;;;;;4995060;28;20042;-80
2022/01/16 08:05:31;;;;;;;75.25;25.92;;;3.90;99.90;;;;;;4995488;28;20038;-80
2022/01/16 08:07:57;;;;;;;82.88;28.98;;;3.90;99.90;;;;;;4994570;28;20482;-80
2022/01/16 08:10:23;;;;;;;81.63;25.95;;;4.00;99.90;;;;;;4996410;28;20050;-80
2022/01/16 08:12:48;;;;;;;74.38;23.08;;;4.10;99.90;;;;;;4997863;28;20053;-81
2022/01/16 08:15:14;;;;;;;69.65;24.98;;;4.10;99.90;;;;;;4995915;28;20501;-79
2022/01/16 08:17:39;;;;;;;80.22;25.40;;;4.20;99.90;;;;;;4995003;28;20154;-80
2022/01/16 08:20:08;;;;;;;81.88;25.67;;;4.20;99.90;;;;;;4978817;28;20101;-79
2022/01/16 08:22:34;;;;;;;72.63;25.27;;;4.30;99.90;;;;;;4994652;28;20053;-79
2022/01/16 08:25:00;;;;;;;62.72;22.70;;;4.30;99.90;;;;;;4995445;28;20115;-80
2022/01/16 08:27:25;;;;;;;72.85;24.35;;;4.40;99.90;;;;;;4995178;28;20545;-80
2022/01/16 08:29:51;;;;;;;66.55;22.48;;;4.40;99.90;;;;;;4995108;28;20101;-80
2022/01/16 08:32:17;;;;;;;58.20;22.33;;;4.40;99.90;;;;;;4994635;28;20073;-80
2022/01/16 08:34:42;;;;;;;72.88;24.67;;;4.50;99.90;;;;;;4993453;28;20082;-80
2022/01/16 08:37:08;;;;;;;59.67;22.63;;;4.60;99.90;;;;;;4993935;28;20121;-80
2022/01/16 08:39:33;;;;;;;66.55;23.33;;;4.50;99.90;;;;;;4994068;28;20046;-80
2022/01/16 08:41:59;;;;;;;63.92;23.98;;;4.60;99.90;;;;;;4994359;28;20057;-79
2022/01/16 08:44:25;;;;;;;61.35;22.73;;;4.60;99.90;;;;;;4978059;28;20077;-79
2022/01/16 08:46:51;;;;;;;67.60;24.58;;;4.60;99.90;;;;;;4994149;28;20049;-80
2022/01/16 08:49:16;;;;;;;60.55;21.90;;;4.60;99.90;;;;;;4993667;28;20077;-80
2022/01/16 08:51:42;;;;;;;66.63;23.35;;;4.60;99.90;;;;;;4994006;28;20089;-79
2022/01/16 08:54:08;;;;;;;67.47;22.00;;;4.60;99.90;;;;;;4994030;28;20125;-80
2022/01/16 08:56:33;;;;;;;53.40;21.58;;;4.70;99.90;;;;;;4993836;28;20393;-79
2022/01/16 08:58:59;;;;;;;54.58;20.73;;;4.70;99.90;;;;;;4977166;28;20046;-79
2022/01/16 09:01:25;;;;;;;58.40;20.10;;;4.70;99.90;;;;;;4993242;28;20547;-79
2022/01/16 09:03:51;;;;;;;59.03;21.50;;;4.80;99.90;;;;;;4993812;28;20065;-80
2022/01/16 09:06:17;;;;;;;56.47;20.85;;;4.80;99.90;;;;;;4993775;28;20039;-80
2022/01/16 09:08:43;;;;;;;54.97;23.02;;;4.80;99.90;;;;;;4993713;28;20038;-80
2022/01/16 09:11:08;;;;;;;52.97;21.40;;;4.90;99.90;;;;;;4993854;28;20053;-80
2022/01/16 09:13:37;;;;;;;60.28;21.83;;;4.90;99.90;;;;;;4994187;28;20038;-80
2022/01/16 09:16:03;;;;;;;56.50;21.35;;;4.90;99.90;;;;;;4994041;28;20104;-80
2022/01/16 09:18:28;;;;;;;51.95;21.05;;;5.00;99.90;;;;;;4977390;28;20046;-80
2022/01/16 09:20:56;;;;;;;57.28;22.23;;;5.00;99.90;;;;;;4993870;28;20129;-80
2022/01/16 09:23:22;;;;;;;59.55;21.05;;;5.00;99.90;;;;;;4994404;28;20042;-80
2022/01/16 09:25:47;;;;;;;54.58;23.38;;;5.10;99.90;;;;;;4993844;28;20394;-80
2022/01/16 09:28:13;;;;;;;50.55;18.23;;;5.10;99.90;;;;;;4994159;28;20109;-80
2022/01/16 09:30:38;;;;;;;50.88;20.85;;;5.20;99.90;;;;;;4993570;28;20552;-80
2022/01/16 09:33:04;;;;;;;47.50;20.67;;;5.20;99.90;;;;;;4994036;28;20050;-80
2022/01/16 09:35:33;;;;;;;42.63;18.48;;;5.20;99.90;;;;;;4994211;28;20046;-80
2022/01/16 09:38:02;;;;;;;46.63;20.45;;;5.20;99.90;;;;;;4994060;28;20120;-80
2022/01/16 09:40:28;;;;;;;48.35;20.13;;;5.20;99.90;;;;;;4993901;28;20046;-80
2022/01/16 09:42:55;;;;;;;56.55;20.30;;;5.30;99.90;;;;;;4994190;28;20053;-80
2022/01/16 09:45:20;;;;;;;45.60;18.63;;;5.20;99.90;;;;;;4992496;28;20101;-80
2022/01/16 09:47:47;;;;;;;54.88;19.75;;;5.30;99.90;;;;;;4993010;28;20046;-80
2022/01/16 09:50:20;;;;;;;46.75;18.92;;;5.30;99.90;;;;;;4993598;28;20049;-80
2022/01/16 09:52:47;;;;;;;48.70;20.40;;;5.30;99.90;;;;;;4976661;28;20046;-79
2022/01/16 09:55:14;;;;;;;48.85;20.40;;;5.40;99.90;;;;;;4992280;28;20525;-78
2022/01/16 09:57:41;;;;;;;42.38;19.45;;;5.40;99.90;;;;;;4992269;28;20042;-78
2022/01/16 10:00:10;;;;;;;47.63;19.77;;;5.40;99.90;;;;;;4991865;28;20097;-78
2022/01/16 10:02:36;;;;;;;44.78;19.00;;;5.40;99.90;;;;;;4992054;28;20488;-80
2022/01/16 10:05:19;;;;;;;43.25;19.23;;;5.40;99.90;;;;;;4991878;28;20073;-78
2022/01/16 10:07:45;;;;;;;39.80;16.92;;;5.40;99.90;;;;;;4993145;28;20556;-78
2022/01/16 10:10:12;;;;;;;37.13;17.42;;;5.40;99.90;;;;;;4993077;28;20034;-78
2022/01/16 10:12:45;;;;;;;108.00;53.50;;;5.40;99.90;;;;;;4991933;28;20046;-77
2022/01/16 10:15:26;;;;;;;42.03;17.35;;;5.40;99.90;;;;;;4991842;28;20100;-78
2022/01/16 10:17:55;;;;;;;44.90;18.75;;;5.40;99.90;;;;;;4991700;28;20057;-78
2022/01/16 10:20:21;;;;;;;42.05;18.00;;;5.50;99.90;;;;;;4993403;28;20038;-79
2022/01/16 10:22:50;;;;;;;39.03;18.10;;;5.50;99.90;;;;;;4992243;28;20042;-79
2022/01/16 10:25:34;;;;;;;39.75;15.68;;;5.50;99.90;;;;;;4991846;28;20050;-79
2022/01/16 10:28:02;;;;;;;39.17;16.52;;;5.50;99.90;;;;;;4993449;28;20042;-74
2022/01/16 10:30:39;;;;;;;40.28;16.45;;;5.50;99.90;;;;;;4994026;28;20081;-80
2022/01/16 10:33:10;;;;;;;35.33;17.05;;;5.60;99.90;;;;;;4994588;28;20042;-80
2022/01/16 10:35:37;;;;;;;32.53;15.50;;;5.60;99.90;;;;;;4994538;28;20405;-80
2022/01/16 10:38:03;;;;;;;33.10;14.65;;;5.60;99.90;;;;;;4993508;28;20141;-82
2022/01/16 10:40:35;;;;;;;37.97;16.60;;;5.60;99.90;;;;;;4976547;28;20137;-83
2022/01/16 10:43:05;;;;;;;36.38;13.32;;;5.70;99.90;;;;;;4993708;28;20043;-82
2022/01/16 10:45:32;;;;;;;35.13;15.95;;;5.70;99.90;;;;;;4993625;28;20130;-83
2022/01/16 10:48:00;;;;;;;30.55;14.43;;;5.70;99.90;;;;;;4996542;28;20045;-82
2022/01/16 10:50:39;;;;;;;30.40;14.07;;;5.80;99.90;;;;;;4996930;28;20449;-82
2022/01/16 10:53:19;;;;;;;27.67;14.20;;;5.80;99.90;;;;;;4996095;28;20074;-82
2022/01/16 10:55:51;;;;;;;27.63;12.93;;;5.80;99.90;;;;;;4979361;28;20108;-83
2022/01/16 10:58:25;;;;;;;31.10;12.95;;;5.80;99.90;;;;;;4998564;28;20096;-82
2022/01/16 11:01:03;;;;;;;34.10;13.98;;;5.90;99.90;;;;;;5000975;28;20077;-82
2022/01/16 11:03:47;;;;;;;35.25;13.60;;;5.90;99.90;;;;;;4999326;28;20053;-82
2022/01/16 11:06:23;;;;;;;34.17;13.27;;;5.90;99.90;;;;;;5000460;28;20052;-82
2022/01/16 11:08:51;;;;;;;24.25;11.38;;;5.90;99.90;;;;;;4999734;28;20034;-82
2022/01/16 11:11:19;;;;;;;26.45;13.45;;;5.90;99.90;;;;;;4999834;28;20042;-81
2022/01/16 11:13:44;;;;;;;33.40;12.65;;;5.90;99.90;;;;;;4998970;28;20046;-82
2022/01/16 11:16:11;;;;;;;25.98;12.73;;;5.90;99.90;;;;;;4999501;28;20502;-82
2022/01/16 11:18:40;;;;;;;26.75;12.07;;;5.90;99.90;;;;;;5001396;28;20046;-82
2022/01/16 11:24:11;;;;;;;21.90;11.30;;;6.00;99.90;;;;;;5000036;28;20129;-82
2022/01/16 11:26:35;;;;;;;23.60;10.63;;;6.00;99.90;;;;;;4999715;28;20177;-82
2022/01/16 11:29:01;;;;;;;23.45;9.82;;;6.00;99.90;;;;;;4999344;28;20046;-82
2022/01/16 11:31:27;;;;;;;25.08;10.75;;;6.00;99.90;;;;;;4999274;28;20058;-79
2022/01/16 11:33:53;;;;;;;22.30;8.90;;;6.10;99.90;;;;;;4994559;28;20046;-80
2022/01/16 11:36:28;;;;;;;25.00;10.65;;;6.10;99.90;;;;;;4994454;28;20042;-80
2022/01/16 11:38:59;;;;;;;16.77;9.82;;;6.00;99.90;;;;;;4995751;28;20048;-79
2022/01/16 11:41:34;;;;;;;20.13;10.10;;;6.10;99.90;;;;;;4978506;28;20121;-79
2022/01/16 11:44:23;;;;;;;18.75;8.48;;;6.10;99.90;;;;;;4994494;28;20097;-79
2022/01/16 11:46:51;;;;;;;20.30;8.75;;;6.10;99.90;;;;;;4994377;28;20117;-79
2022/01/16 11:49:30;;;;;;;22.30;10.05;;;6.10;99.90;;;;;;4994725;28;20041;-81
2022/01/16 11:52:02;;;;;;;22.20;9.27;;;6.10;99.90;;;;;;4978544;28;20046;-79
2022/01/16 11:54:36;;;;;;;18.63;9.05;;;6.10;99.90;;;;;;4994582;28;20042;-79
2022/01/16 11:57:20;;;;;;;22.95;10.00;;;6.20;99.90;;;;;;4994552;28;20054;-79
2022/01/16 11:59:47;;;;;;;16.48;7.82;;;6.20;99.90;;;;;;4994259;28;20509;-79
2022/01/16 12:02:13;;;;;;;19.02;8.68;;;6.20;99.90;;;;;;4945600;28;20046;-79
2022/01/16 12:04:38;;;;;;;19.88;9.35;;;6.20;99.90;;;;;;4953720;29;20031;-79
2022/01/16 12:07:13;;;;;;;21.60;9.48;;;6.20;99.90;;;;;;4953914;29;20061;-79
2022/01/16 12:09:48;;;;;;;21.02;9.93;;;6.20;99.90;;;;;;4954011;28;20390;-80
2022/01/16 12:12:14;;;;;;;23.58;7.72;;;6.20;99.90;;;;;;4955539;29;20051;-79
2022/01/16 12:15:05;;;;;;;22.08;10.00;;;6.20;99.90;;;;;;4952749;29;20128;-79
2022/01/16 12:17:51;;;;;;;22.33;9.77;;;6.20;99.90;;;;;;4955393;29;20062;-79
2022/01/16 12:20:26;;;;;;;18.40;9.25;;;6.30;99.90;;;;;;4955319;29;20051;-79
2022/01/16 12:22:57;;;;;;;22.52;9.15;;;6.30;99.90;;;;;;4954980;29;20047;-79
2022/01/16 12:25:39;;;;;;;18.73;9.13;;;6.30;99.90;;;;;;4954762;29;20051;-79
2022/01/16 12:28:06;;;;;;;18.88;9.27;;;6.40;99.90;;;;;;4955090;29;20073;-79
2022/01/16 12:30:43;;;;;;;18.58;8.73;;;6.40;99.90;;;;;;4955570;29;20051;-79
2022/01/16 12:33:20;;;;;;;18.23;7.50;;;6.40;99.90;;;;;;4955182;29;20047;-79
2022/01/16 12:35:50;;;;;;;26.42;12.07;;;6.50;99.90;;;;;;4954851;29;20122;-79
2022/01/16 12:38:20;;;;;;;17.42;7.90;;;6.50;99.90;;;;;;4955011;29;20061;-79
2022/01/16 12:40:58;;;;;;;21.02;8.35;;;6.50;99.90;;;;;;4954872;29;20564;-80
2022/01/16 12:43:31;;;;;;;16.20;7.90;;;6.60;99.90;;;;;;4939022;29;20142;-79
2022/01/16 12:45:58;;;;;;;18.73;7.82;;;6.60;99.90;;;;;;4954774;29;20039;-79
2022/01/16 12:48:23;;;;;;;13.38;6.85;;;6.60;99.90;;;;;;4954694;29;20054;-79
2022/01/16 12:50:51;;;;;;;18.50;7.25;;;6.60;99.90;;;;;;4954751;29;20494;-79
2022/01/16 12:53:41;;;;;;;19.60;7.22;;;6.70;99.90;;;;;;4954926;29;20051;-79
2022/01/16 12:56:27;;;;;;;17.33;6.30;;;6.70;99.90;;;;;;4954514;29;20047;-79
2022/01/16 12:58:57;;;;;;;12.45;6.00;;;6.70;99.90;;;;;;4954986;29;20066;-79
2022/01/16 13:01:23;;;;;;;18.05;5.38;;;6.80;99.90;;;;;;4955238;29;20050;-79
2022/01/16 13:03:49;;;;;;;9.90;4.88;;;6.80;99.90;;;;;;4954325;29;20066;-79
2022/01/16 13:06:29;;;;;;;15.05;5.55;;;6.90;99.90;;;;;;4955580;29;20094;-79
2022/01/16 13:08:57;;;;;;;10.20;4.47;;;6.90;99.90;;;;;;4955811;29;20047;-79
2022/01/16 13:11:26;;;;;;;14.43;4.95;;;7.00;99.90;;;;;;4954305;29;20051;-78
2022/01/16 13:13:51;;;;;;;14.60;5.75;;;7.00;99.90;;;;;;4954893;29;20047;-78
2022/01/16 13:16:26;;;;;;;12.02;4.70;;;7.10;99.90;;;;;;4954837;29;20090;-78
2022/01/16 13:19:07;;;;;;;15.50;5.13;;;7.10;99.90;;;;;;4954303;29;20055;-77
2022/01/16 13:22:11;;;;;;;13.18;4.50;;;7.10;99.90;;;;;;4953903;28;20109;-78
2022/01/16 13:24:48;;;;;;;13.70;4.50;;;7.10;99.90;;;;;;4938994;29;20134;-78